Birmingham-Shuttlesworth International Airport
KBHM : now visible

Airfield :











YOU CAN JOIN US ON...

 
LOGIN :

Register | Disclaimer

   EN    FR    IT 

 









Legend :    VFR   Marginal VFR   IFR   Intensive IFR   Very Intensive IFR
Visi :
Ceiling :
>= 8 km
>= 3000ft
5 to 8 km
1000 to 3000 ft
1500m to 5 km
500 to 1000 ft
800 to 1500m
200 to 500 ft
< 800m
< 200 ft
Symbols :   Thunderstorms  Fog  Heavy snow  Heavy precipitations  Wind > 20 kt






- Airport Elevation : 650 ft
- IATA code : BHM


KBHM - Birmingham-Shuttlesworth International

CURRENT METAR :
  • 191040Z 04003KT 8SM -RA BKN014 BKN029 OVC085 23/22 A3007 RMK AO2 P0003 T02280217 $

EXPIRED METARs :
  • 191020Z 00000KT 8SM -RA FEW013 BKN060 OVC090 23/22 A3006 RMK AO2 P0001 T02280217 $
  • 190953Z 00000KT 10SM -RA BKN013 OVC100 23/22 A3006 RMK AO2 RAB40 SLP170 P0000 T02280217 $
  • 190853Z 00000KT 10SM BKN090 23/22 A3006 RMK AO2 RAE07 SLP170 P0001 60006 T02280217 58004 $
  • 190753Z 00000KT 10SM -RA SCT032 BKN039 BKN060 23/22 A3007 RMK AO2 SLP175 P0003 T02280217 $

TAF KBHM
Valid from the 19 at 09:00 until the 20 at 06:00 UTC


190831Z 1909/2006 VRB03KT P6SM VCSH BKN035
FM191100 08004KT 5SM -SHRA BR BKN008 OVC020
FM191400 08006KT 5SM -SHRA BR VCTS OVC010CB
FM191800 10006KT 4SM SHRA BR OVC010
PROB30 1918/1924 2SM TSRA BR OVC008CB
FM200000 11006KT 6SM SHRA BR BKN010
PROB30 2000/2006 4SM SHRA BR OVC004
KZTL FIR / North America



MET'MAP, your aeronautical weather chart ! - Copyright ORBIFLY December 2007 - Disclaimer

ORBIFLY MET'MAP TEAM :

Programming & Development : Alexandra Zaïnal
Concept & original design : Baudouin d'Aumeries
Assistance for programming : Marc-Olivier Méhu
Technical & hardware support : Manuel Goepfert

Contact : metmap@orbifly.com




SOURCES & CREDITS :

   NOAA       Earth
Advisory